createdAt,value
2022-09-05T00:01:27.837Z,2.25
2022-09-05T00:03:59.013Z,2.20
2022-09-05T00:06:46.109Z,2.05
2022-09-05T00:09:14.410Z,2.33
2022-09-05T00:11:45.777Z,2.38
2022-09-05T00:14:34.371Z,2.75
2022-09-05T00:17:22.981Z,2.35
2022-09-05T00:24:22.951Z,2.40
2022-09-05T00:24:27.147Z,3.05
2022-09-05T00:25:57.144Z,3.17
2022-09-05T00:28:30.858Z,2.40
2022-09-05T00:31:55.707Z,2.47
2022-09-05T00:34:03.065Z,2.42
2022-09-05T00:36:34.545Z,2.10
2022-09-05T00:39:05.346Z,2.75
2022-09-05T00:41:34.356Z,2.25
2022-09-05T00:44:02.196Z,2.78
2022-09-05T00:46:32.023Z,3.13
2022-09-05T00:49:08.994Z,2.53
2022-09-05T00:51:38.305Z,2.95
2022-09-05T00:54:41.066Z,2.30
2022-09-05T00:57:21.475Z,3.10
2022-09-05T01:00:01.209Z,2.75
2022-09-05T01:02:56.840Z,4.68
2022-09-05T01:05:36.977Z,2.67
2022-09-05T01:08:15.593Z,2.70
2022-09-05T01:10:47.933Z,2.55
2022-09-05T01:13:20.103Z,2.55
2022-09-05T01:15:51.553Z,3.42
2022-09-05T01:18:25.468Z,2.67
2022-09-05T01:21:13.764Z,3.35
2022-09-05T01:23:50.416Z,3.13
2022-09-05T01:26:47.314Z,3.47
2022-09-05T01:29:19.938Z,2.22
2022-09-05T01:31:56.928Z,2.60
2022-09-05T01:34:31.906Z,2.95
2022-09-05T01:37:01.130Z,2.42
2022-09-05T01:40:11.722Z,2.40
2022-09-05T01:42:31.732Z,2.85
2022-09-05T01:45:03.021Z,2.40
2022-09-05T01:47:38.135Z,2.70
2022-09-05T01:50:18.332Z,3.13
2022-09-05T01:53:03.676Z,3.85
2022-09-05T01:56:05.059Z,2.88
2022-09-05T01:58:34.029Z,2.45
2022-09-05T02:01:25.416Z,2.60
2022-09-05T02:04:08.901Z,3.35
2022-09-05T02:06:38.528Z,2.50
2022-09-05T02:09:11.756Z,3.25
2022-09-05T02:11:41.990Z,2.97
2022-09-05T02:14:12.897Z,3.92
2022-09-05T02:16:53.865Z,2.45
2022-09-05T02:19:24.016Z,2.85
2022-09-05T02:21:57.561Z,3.40
2022-09-05T02:24:27.900Z,2.60
2022-09-05T02:27:38.906Z,2.75
2022-09-05T02:30:08.662Z,3.00
2022-09-05T02:32:44.890Z,3.30
2022-09-05T02:35:17.324Z,2.63
2022-09-05T02:38:38.043Z,2.40
2022-09-05T02:45:11.605Z,2.63
2022-09-05T02:45:19.111Z,2.70
2022-09-05T02:46:20.987Z,2.95
2022-09-05T02:48:54.044Z,2.72
2022-09-05T02:57:28.840Z,2.70
2022-09-05T02:57:33.107Z,3.03
2022-09-05T02:57:38.338Z,2.40
2022-09-05T03:00:05.358Z,3.28
2022-09-05T03:02:38.324Z,2.92
2022-09-05T03:05:10.691Z,2.40
2022-09-05T03:07:48.147Z,2.75
2022-09-05T03:10:53.827Z,2.70
2022-09-05T03:13:50.153Z,2.83
2022-09-05T03:16:58.909Z,2.88
2022-09-05T03:19:47.525Z,2.50
2022-09-05T03:22:37.505Z,3.30
2022-09-05T03:25:22.290Z,2.95
2022-09-05T03:28:18.804Z,2.75
2022-09-05T03:30:56.605Z,2.60
2022-09-05T03:33:37.896Z,2.78
2022-09-05T03:36:30.706Z,3.50
2022-09-05T03:39:26.481Z,3.38
2022-09-05T03:42:02.141Z,3.42
2022-09-05T03:44:37.957Z,3.35
2022-09-05T03:47:24.368Z,2.92
2022-09-05T03:52:51.418Z,4.85
2022-09-05T03:57:12.060Z,2.83
2022-09-05T03:57:18.319Z,2.65
2022-09-05T03:59:47.425Z,3.10
2022-09-05T04:05:25.501Z,3.95
2022-09-05T04:08:14.406Z,2.88
2022-09-05T04:08:30.677Z,3.45
2022-09-05T04:10:45.583Z,2.60
2022-09-05T04:13:19.773Z,3.63
2022-09-05T04:15:48.643Z,3.05
2022-09-05T04:18:25.759Z,3.65
2022-09-05T04:21:03.446Z,3.55
2022-09-05T04:23:33.225Z,2.63
2022-09-05T04:26:12.117Z,4.72
2022-09-05T04:29:02.642Z,2.90
2022-09-05T04:31:35.979Z,2.70
2022-09-05T04:34:09.720Z,2.67
2022-09-05T04:36:37.850Z,4.55
2022-09-05T04:39:25.968Z,2.50
2022-09-05T04:41:54.661Z,4.00
2022-09-05T04:44:29.533Z,2.33
2022-09-05T04:46:58.072Z,2.40
2022-09-05T04:49:26.757Z,4.35
2022-09-05T04:52:03.527Z,2.83
2022-09-05T04:54:34.397Z,2.65
2022-09-05T04:57:14.096Z,4.55
2022-09-05T05:06:00.102Z,2.30
2022-09-05T05:06:04.779Z,3.80
2022-09-05T05:06:16.461Z,2.78
2022-09-05T05:08:16.867Z,3.40
2022-09-05T05:15:48.451Z,2.72
2022-09-05T05:18:02.615Z,2.40
2022-09-05T05:18:09.770Z,2.53
2022-09-05T05:19:30.610Z,4.05
2022-09-05T05:21:59.433Z,3.13
2022-09-05T05:24:28.684Z,2.45
2022-09-05T05:27:00.429Z,2.45
2022-09-05T05:29:32.757Z,2.65
2022-09-05T05:32:05.839Z,2.40
2022-09-05T05:34:34.521Z,2.92
2022-09-05T05:37:04.546Z,2.67
2022-09-05T05:39:32.165Z,2.65
2022-09-05T05:42:19.455Z,2.20
2022-09-05T05:44:49.086Z,2.50
2022-09-05T05:47:28.267Z,2.50
2022-09-05T05:50:05.178Z,2.55
2022-09-05T05:52:42.461Z,2.50
2022-09-05T05:55:50.783Z,3.55
2022-09-05T05:58:32.959Z,2.40
2022-09-05T06:01:52.092Z,3.03
2022-09-05T06:04:35.392Z,2.40
2022-09-05T06:07:11.322Z,2.70
2022-09-05T06:14:48.955Z,2.60
2022-09-05T06:15:02.192Z,2.67
2022-09-05T06:16:28.840Z,3.13
2022-09-05T06:19:18.151Z,2.40
2022-09-05T06:22:09.355Z,2.47
2022-09-05T06:25:40.536Z,2.60
2022-09-05T06:28:18.879Z,2.40
2022-09-05T06:30:57.139Z,2.40
2022-09-05T06:33:46.773Z,4.97
2022-09-05T06:36:23.209Z,3.38
2022-09-05T06:39:00.266Z,3.33
2022-09-05T06:41:33.717Z,2.70
2022-09-05T06:44:31.178Z,2.53
2022-09-05T06:47:22.699Z,2.50
2022-09-05T06:50:00.240Z,2.80
2022-09-05T06:53:34.143Z,2.40
2022-09-05T06:56:12.727Z,2.50
2022-09-05T06:59:21.183Z,2.47
2022-09-05T07:02:01.074Z,2.38
2022-09-05T07:05:24.708Z,2.42
2022-09-05T07:07:27.587Z,2.20
2022-09-05T07:09:58.946Z,2.67
2022-09-05T07:12:30.507Z,2.72
2022-09-05T07:15:09.332Z,2.90
2022-09-05T07:18:09.167Z,2.58
2022-09-05T07:21:17.335Z,4.18
2022-09-05T07:24:05.825Z,2.38
2022-09-05T07:26:51.861Z,2.72
2022-09-05T07:29:09.788Z,3.30
2022-09-05T07:31:38.706Z,2.53
2022-09-05T07:34:20.916Z,3.22
2022-09-05T07:36:50.585Z,3.03
2022-09-05T07:39:39.979Z,2.70
2022-09-05T07:42:09.148Z,2.60
2022-09-05T07:44:39.067Z,2.60
2022-09-05T07:47:08.209Z,2.55
2022-09-05T07:49:36.519Z,2.35
2022-09-05T07:56:49.384Z,2.47
2022-09-05T07:56:51.732Z,2.80
2022-09-05T07:57:51.674Z,3.17
2022-09-05T08:00:26.972Z,3.03
2022-09-05T08:02:58.193Z,2.67
2022-09-05T08:05:26.770Z,2.60
2022-09-05T08:08:03.845Z,2.83
2022-09-05T08:11:11.513Z,2.78
2022-09-05T08:13:23.852Z,2.33
2022-09-05T08:16:09.916Z,2.42
2022-09-05T08:18:42.663Z,2.58
2022-09-05T08:21:12.093Z,2.22
2022-09-05T08:23:49.773Z,3.63
2022-09-05T08:26:19.821Z,2.47
2022-09-05T08:28:55.458Z,2.55
2022-09-05T08:31:26.686Z,2.65
2022-09-05T08:33:54.361Z,2.47
2022-09-05T08:36:27.168Z,2.28
2022-09-05T08:38:54.764Z,2.58
2022-09-05T08:41:49.192Z,2.65
2022-09-05T08:46:44.009Z,3.03
2022-09-05T08:47:12.888Z,3.10
2022-09-05T08:49:49.829Z,2.70
2022-09-05T08:52:24.730Z,2.50
2022-09-05T08:55:04.338Z,2.90
2022-09-05T08:57:52.622Z,2.50
2022-09-05T09:00:24.416Z,2.88
2022-09-05T09:03:04.259Z,3.55
2022-09-05T09:05:58.113Z,3.08
2022-09-05T09:08:33.109Z,3.38
2022-09-05T09:11:03.244Z,4.57
2022-09-05T09:13:35.597Z,2.67
2022-09-05T09:16:06.478Z,2.80
2022-09-05T09:18:42.844Z,3.35
2022-09-05T09:21:26.150Z,2.88
2022-09-05T09:23:57.345Z,3.30
2022-09-05T09:26:28.798Z,3.38
2022-09-05T09:29:00.623Z,3.28
2022-09-05T09:31:37.442Z,2.72
2022-09-05T09:34:16.618Z,3.10
2022-09-05T09:37:02.754Z,3.50
2022-09-05T09:39:38.916Z,3.08
2022-09-05T09:42:32.413Z,2.80
2022-09-05T09:45:29.739Z,2.92
2022-09-05T09:48:12.225Z,2.88
2022-09-05T09:50:59.024Z,3.45
2022-09-05T09:53:43.150Z,3.67
2022-09-05T09:56:32.206Z,3.42
2022-09-05T09:59:21.043Z,2.83
2022-09-05T10:01:53.261Z,5.15
2022-09-05T10:07:50.260Z,3.08
2022-09-05T10:10:50.597Z,4.32
2022-09-05T10:11:44.032Z,4.40
2022-09-05T10:14:30.700Z,4.22
2022-09-05T10:17:21.257Z,6.10
2022-09-05T10:20:10.517Z,3.33
2022-09-05T10:22:49.001Z,5.55
2022-09-05T10:25:22.273Z,4.28
2022-09-05T10:28:04.885Z,5.25
2022-09-05T10:31:09.590Z,4.07
2022-09-05T10:35:16.922Z,3.45
2022-09-05T10:36:27.458Z,3.38
2022-09-05T10:39:02.980Z,3.15
2022-09-05T10:41:39.625Z,4.18
2022-09-05T10:44:07.238Z,3.13
2022-09-05T10:46:50.755Z,3.47
2022-09-05T10:49:22.518Z,3.88
2022-09-05T10:51:55.009Z,3.00
2022-09-05T10:54:38.963Z,3.53
2022-09-05T10:57:13.275Z,3.17
2022-09-05T11:02:19.091Z,3.97
2022-09-05T11:02:46.523Z,3.55
2022-09-05T11:05:20.948Z,3.00
2022-09-05T11:07:52.233Z,5.80
2022-09-05T11:10:23.278Z,3.42
2022-09-05T11:13:10.712Z,4.00
2022-09-05T11:16:03.996Z,3.03
2022-09-05T11:18:56.446Z,3.13
2022-09-05T11:21:28.487Z,3.40
2022-09-05T11:23:57.618Z,5.47
2022-09-05T11:26:32.086Z,3.10
2022-09-05T11:29:03.117Z,3.97
2022-09-05T11:33:27.187Z,3.47
2022-09-05T11:39:49.192Z,3.45
2022-09-05T11:39:51.880Z,3.20
2022-09-05T11:40:45.125Z,2.92
2022-09-05T11:44:24.890Z,3.38
2022-09-05T11:47:28.078Z,2.80
2022-09-05T11:50:10.366Z,3.30
2022-09-05T11:53:05.166Z,3.33
2022-09-05T11:55:58.348Z,3.17
2022-09-05T11:58:44.514Z,3.63
2022-09-05T12:01:41.992Z,3.22
2022-09-05T12:04:27.592Z,3.95
2022-09-05T12:07:29.889Z,3.42
2022-09-05T12:10:05.005Z,2.92
2022-09-05T12:12:41.084Z,3.35
2022-09-05T12:15:16.941Z,4.50
2022-09-05T12:17:53.107Z,4.22
2022-09-05T12:20:24.908Z,3.20
2022-09-05T12:22:54.518Z,3.30
2022-09-05T12:27:36.459Z,3.13
2022-09-05T12:29:32.961Z,3.13
2022-09-05T12:32:36.364Z,3.30
2022-09-05T12:36:04.061Z,3.67
2022-09-05T12:40:58.275Z,3.35
2022-09-05T12:41:35.077Z,3.58
2022-09-05T12:42:54.567Z,3.20
2022-09-05T12:45:37.679Z,3.20
2022-09-05T12:48:11.104Z,3.65
2022-09-05T12:50:43.277Z,3.63
2022-09-05T12:53:14.030Z,4.82
2022-09-05T12:55:44.444Z,3.40
2022-09-05T13:02:55.796Z,3.30
2022-09-05T13:03:04.849Z,3.45
2022-09-05T13:04:25.208Z,3.20
2022-09-05T13:07:01.010Z,3.20
2022-09-05T13:09:58.271Z,3.20
2022-09-05T13:14:50.670Z,3.22
2022-09-05T13:15:20.127Z,3.35
2022-09-05T13:17:53.077Z,3.30
2022-09-05T13:20:22.709Z,3.13
2022-09-05T13:22:50.913Z,3.00
2022-09-05T13:25:24.988Z,3.20
2022-09-05T13:27:57.542Z,3.42
2022-09-05T13:31:53.399Z,3.17
2022-09-05T13:37:59.534Z,3.17
2022-09-05T13:38:21.301Z,3.20
2022-09-05T13:38:56.665Z,3.45
2022-09-05T13:41:28.761Z,3.53
2022-09-05T13:44:00.473Z,3.45
2022-09-05T13:46:57.424Z,3.28
2022-09-05T13:49:31.232Z,3.17
2022-09-05T13:52:06.682Z,3.40
2022-09-05T13:54:39.238Z,3.50
2022-09-05T13:57:32.150Z,2.95
2022-09-05T14:00:28.060Z,3.67
2022-09-05T14:03:35.968Z,2.80
2022-09-05T14:06:08.624Z,3.28
2022-09-05T14:11:56.378Z,4.00
2022-09-05T14:20:35.494Z,3.30
2022-09-05T14:23:07.432Z,3.33
2022-09-05T14:25:36.333Z,3.38
2022-09-05T14:28:04.372Z,5.45
2022-09-05T14:33:08.111Z,4.57
2022-09-05T14:37:53.652Z,5.40
2022-09-05T14:38:01.042Z,7.57
2022-09-05T14:39:58.426Z,7.10
2022-09-05T14:42:36.124Z,4.18
2022-09-05T14:45:25.142Z,10.68
2022-09-05T14:48:02.524Z,12.85
2022-09-05T14:50:48.158Z,6.88
2022-09-05T14:57:13.601Z,11.50
2022-09-05T15:02:50.549Z,5.32
2022-09-05T15:02:58.246Z,8.60
2022-09-05T15:04:49.933Z,7.63
2022-09-05T15:07:20.818Z,5.35
2022-09-05T15:12:14.552Z,8.70
2022-09-05T15:12:49.344Z,5.78
2022-09-05T15:15:22.804Z,7.28
2022-09-05T15:17:52.504Z,6.25
2022-09-05T15:20:36.035Z,7.50
2022-09-05T15:23:16.102Z,5.78
2022-09-05T15:25:47.023Z,6.50
2022-09-05T15:28:19.758Z,5.47
2022-09-05T15:30:56.473Z,5.30
2022-09-05T15:33:25.916Z,5.40
2022-09-05T15:35:55.250Z,5.53
2022-09-05T15:38:29.400Z,3.63
2022-09-05T15:41:11.227Z,5.03
2022-09-05T15:43:40.612Z,4.07
2022-09-05T15:46:08.463Z,4.00
2022-09-05T15:48:36.254Z,5.88
2022-09-05T15:51:11.912Z,4.72
2022-09-05T15:53:40.452Z,5.80
2022-09-05T15:56:20.407Z,5.15
2022-09-05T15:58:53.905Z,5.18
2022-09-05T16:01:48.520Z,6.97
2022-09-05T16:06:53.843Z,6.75
2022-09-05T16:10:41.286Z,3.53
2022-09-05T16:10:46.663Z,3.78
2022-09-05T16:12:41.859Z,3.95
2022-09-05T16:16:35.291Z,5.53
2022-09-05T16:23:25.850Z,5.07
2022-09-05T16:23:27.596Z,4.13
2022-09-05T16:23:42.851Z,3.97
2022-09-05T16:26:11.772Z,4.43
2022-09-05T16:28:41.733Z,5.55
2022-09-05T16:31:13.093Z,4.05
2022-09-05T16:33:40.684Z,4.97
2022-09-05T16:36:15.511Z,3.45
2022-09-05T16:38:49.751Z,5.93
2022-09-05T16:41:24.129Z,3.95
2022-09-05T16:43:54.191Z,7.30
2022-09-05T16:46:23.531Z,7.15
2022-09-05T16:48:55.263Z,6.15
2022-09-05T16:51:35.175Z,4.95
2022-09-05T16:54:10.309Z,3.58
2022-09-05T16:56:41.087Z,3.10
2022-09-05T16:59:10.488Z,5.35
2022-09-05T17:01:48.693Z,5.38
2022-09-05T17:04:25.826Z,3.97
2022-09-05T17:06:56.367Z,4.47
2022-09-05T17:09:26.589Z,4.20
2022-09-05T17:12:00.536Z,4.95
2022-09-05T17:14:34.006Z,4.18
2022-09-05T17:17:19.652Z,3.47
2022-09-05T17:20:06.031Z,3.20
2022-09-05T17:24:56.709Z,3.75
2022-09-05T17:29:26.431Z,3.22
2022-09-05T17:29:27.751Z,4.05
2022-09-05T17:34:48.286Z,4.95
2022-09-05T17:38:02.973Z,5.78
2022-09-05T17:41:17.685Z,3.47
2022-09-05T17:43:47.344Z,3.20
2022-09-05T17:46:19.201Z,4.03
2022-09-05T17:49:19.419Z,6.22
2022-09-05T17:52:28.073Z,3.40
2022-09-05T17:54:56.267Z,4.80
2022-09-05T17:57:45.152Z,3.22
2022-09-05T18:00:58.306Z,3.30
2022-09-05T18:03:55.620Z,5.32
2022-09-05T18:06:52.783Z,3.13
2022-09-05T18:10:11.927Z,3.20
2022-09-05T18:13:12.723Z,3.33
2022-09-05T18:16:11.688Z,6.90
2022-09-05T18:19:28.941Z,3.85
2022-09-05T18:21:48.311Z,3.20
2022-09-05T18:24:17.742Z,3.40
2022-09-05T18:26:54.085Z,3.17
2022-09-05T18:29:58.913Z,3.63
2022-09-05T18:32:38.939Z,3.05
2022-09-05T18:35:36.659Z,3.47
2022-09-05T18:38:51.909Z,2.88
2022-09-05T18:41:18.251Z,2.90
2022-09-05T18:44:13.266Z,3.03
2022-09-05T18:46:49.996Z,2.65
2022-09-05T18:50:23.785Z,3.15
2022-09-05T18:52:17.217Z,4.10
2022-09-05T18:55:31.634Z,3.83
2022-09-05T18:57:39.329Z,5.82
2022-09-05T19:00:10.118Z,4.03
2022-09-05T19:02:50.496Z,3.88
2022-09-05T19:05:36.705Z,3.08
2022-09-05T19:08:04.780Z,3.35
2022-09-05T19:10:35.882Z,5.97
2022-09-05T19:13:10.299Z,6.15
2022-09-05T19:15:48.145Z,4.10
2022-09-05T19:18:26.567Z,2.83
2022-09-05T19:21:12.358Z,3.13
2022-09-05T19:23:49.641Z,3.10
2022-09-05T19:26:17.369Z,3.58
2022-09-05T19:36:47.283Z,3.35
2022-09-05T19:36:50.318Z,2.92
2022-09-05T19:37:13.759Z,3.17
2022-09-05T19:37:30.075Z,3.47
2022-09-05T19:45:48.943Z,3.30
2022-09-05T19:47:34.473Z,3.42
2022-09-05T19:47:57.819Z,3.20
2022-09-05T19:48:29.306Z,3.13
2022-09-05T19:51:17.523Z,3.30
2022-09-05T19:53:46.856Z,3.35
2022-09-05T19:56:14.612Z,2.95
2022-09-05T19:58:42.671Z,3.70
2022-09-05T20:01:14.484Z,3.47
2022-09-05T20:03:43.236Z,3.30
2022-09-05T20:06:29.429Z,3.40
2022-09-05T20:09:15.296Z,3.10
2022-09-05T20:11:46.812Z,2.97
2022-09-05T20:14:19.155Z,3.20
2022-09-05T20:16:49.568Z,3.90
2022-09-05T20:19:29.198Z,4.53
2022-09-05T20:22:05.481Z,3.15
2022-09-05T20:24:48.653Z,3.40
2022-09-05T20:27:17.028Z,3.10
2022-09-05T20:29:54.771Z,3.33
2022-09-05T20:32:38.752Z,3.63
2022-09-05T20:40:09.110Z,3.47
2022-09-05T20:43:14.516Z,3.08
2022-09-05T20:43:22.633Z,3.83
2022-09-05T20:43:55.866Z,3.22
2022-09-05T20:51:33.246Z,4.60
2022-09-05T20:54:08.653Z,3.58
2022-09-05T20:54:16.806Z,3.70
2022-09-05T20:55:38.523Z,4.18
2022-09-05T20:58:09.409Z,3.22
2022-09-05T21:00:37.527Z,3.45
2022-09-05T21:03:08.650Z,3.25
2022-09-05T21:05:38.739Z,4.28
2022-09-05T21:08:17.193Z,3.15
2022-09-05T21:10:55.051Z,4.95
2022-09-05T21:13:25.319Z,3.58
2022-09-05T21:15:54.342Z,3.15
2022-09-05T21:18:23.210Z,3.67
2022-09-05T21:20:55.101Z,3.53
2022-09-05T21:23:27.561Z,3.35
2022-09-05T21:25:57.561Z,3.20
2022-09-05T21:28:36.841Z,3.20
2022-09-05T21:31:10.588Z,2.78
2022-09-05T21:33:45.718Z,3.38
2022-09-05T21:36:13.772Z,2.90
2022-09-05T21:38:42.310Z,3.08
2022-09-05T21:41:15.975Z,3.60
2022-09-05T21:47:39.456Z,3.40
2022-09-05T21:47:39.511Z,3.17
2022-09-05T21:49:21.152Z,3.55
2022-09-05T21:51:50.210Z,3.35
2022-09-05T21:59:14.753Z,3.63
2022-09-05T21:59:18.802Z,2.95
2022-09-05T22:00:07.097Z,3.10
2022-09-05T22:02:38.790Z,3.33
2022-09-05T22:05:06.996Z,3.80
2022-09-05T22:07:35.764Z,3.45
2022-09-05T22:10:04.536Z,3.28
2022-09-05T22:12:36.709Z,3.60
2022-09-05T22:15:26.350Z,3.33
2022-09-05T22:17:54.150Z,3.15
2022-09-05T22:20:26.063Z,3.42
2022-09-05T22:22:56.448Z,4.07
2022-09-05T22:25:28.063Z,3.30
2022-09-05T22:27:59.733Z,3.33
2022-09-05T22:30:28.556Z,3.53
2022-09-05T22:32:56.236Z,3.20
2022-09-05T22:35:28.431Z,3.38
2022-09-05T22:38:01.007Z,3.30
2022-09-05T22:40:29.992Z,3.72
2022-09-05T22:42:59.577Z,3.97
2022-09-05T22:45:27.369Z,3.50
2022-09-05T22:47:55.085Z,4.43
2022-09-05T22:50:22.742Z,3.80
2022-09-05T22:52:50.372Z,3.55
2022-09-05T22:55:18.029Z,3.28
2022-09-05T22:57:45.765Z,3.22
2022-09-05T23:00:15.592Z,3.75
2022-09-05T23:02:43.241Z,3.53
2022-09-05T23:05:11.108Z,3.30
2022-09-05T23:07:38.857Z,3.97
2022-09-05T23:10:07.138Z,3.47
2022-09-05T23:12:37.905Z,3.72
2022-09-05T23:15:06.322Z,3.40
2022-09-05T23:17:35.360Z,3.40
2022-09-05T23:20:03.707Z,3.22
2022-09-05T23:22:31.358Z,3.20
2022-09-05T23:24:59.046Z,3.85
2022-09-05T23:27:26.749Z,3.25
2022-09-05T23:29:54.364Z,3.63
2022-09-05T23:32:22.010Z,4.25
2022-09-05T23:34:50.997Z,3.33
2022-09-05T23:37:18.635Z,3.67
2022-09-05T23:39:46.365Z,3.33
2022-09-05T23:42:14.081Z,3.33
2022-09-05T23:44:42.026Z,3.30
2022-09-05T23:47:09.722Z,3.60
2022-09-05T23:49:37.370Z,3.70
2022-09-05T23:52:06.471Z,3.25
2022-09-05T23:54:34.188Z,3.20
2022-09-05T23:57:01.845Z,3.72
2022-09-05T23:59:29.900Z,3.30
